Time;durP1;ratioP1;P1;durP2;ratioP2;P2;SDS_P1;SDS_P2;PMS_P1;PMS_P2;Temp;Humidity;BMP_temperature;BMP_pressure;BME280_temperature;BME280_humidity;BME280_pressure;Samples;Min_cycle;Max_cycle;Signal;HPM_P1;HPM_P2
2022/12/02 00:00:51;;;;;;;27.33;14.18;;;;;;;2.59;100.00;98813.72;5134793;27;20046;-94
2022/12/02 00:03:20;;;;;;;26.40;13.40;;;;;;;2.39;100.00;98795.25;5134527;27;20091;-93
2022/12/02 00:05:48;;;;;;;29.97;15.83;;;;;;;2.43;100.00;98806.63;5135501;27;20035;-94
2022/12/02 00:08:18;;;;;;;38.85;16.88;;;;;;;2.56;100.00;98837.34;5135835;27;20050;-93
2022/12/02 00:10:47;;;;;;;27.10;14.82;;;;;;;2.41;100.00;98821.50;5134660;27;20039;-94
2022/12/02 00:13:20;;;;;;;31.07;14.67;;;;;;;2.47;100.00;98832.91;5137994;27;20039;-94
2022/12/02 00:15:48;;;;;;;35.38;19.02;;;;;;;2.19;100.00;98796.84;5150162;27;20050;-94
2022/12/02 00:18:15;;;;;;;31.30;15.97;;;;;;;2.32;100.00;98821.41;5142655;27;20042;-95
2022/12/02 00:20:43;;;;;;;26.02;13.48;;;;;;;2.27;100.00;98821.38;5138589;27;20043;-91
2022/12/02 00:23:09;;;;;;;23.67;13.15;;;;;;;2.09;100.00;98795.91;5139958;27;20039;-94
2022/12/02 00:25:35;;;;;;;25.77;13.82;;;;;;;2.26;100.00;98836.25;5141866;27;20122;-93
2022/12/02 00:28:03;;;;;;;30.83;14.63;;;;;;;2.28;100.00;98832.75;5141312;27;20042;-94
2022/12/02 00:30:30;;;;;;;33.20;16.38;;;;;;;2.32;100.00;98817.06;5143874;27;20051;-93
2022/12/02 00:32:55;;;;;;;34.05;17.42;;;;;;;2.30;100.00;98804.78;5151294;27;20053;-94
2022/12/02 00:35:23;;;;;;;32.78;16.17;;;;;;;2.41;100.00;98808.38;5139930;27;20437;-95
2022/12/02 00:37:49;;;;;;;33.53;17.23;;;;;;;2.40;100.00;98804.84;5142119;27;20563;-93
2022/12/02 00:40:15;;;;;;;31.42;16.48;;;;;;;2.55;100.00;98832.94;5139145;27;20081;-94
2022/12/02 00:42:41;;;;;;;34.45;16.55;;;;;;;2.65;100.00;98847.03;5147882;27;20034;-93
2022/12/02 00:48:11;;;;;;;33.20;16.30;;;;;;;2.75;100.00;98829.56;5108603;27;20394;-94
2022/12/02 00:50:37;;;;;;;35.47;17.30;;;;;;;2.69;100.00;98812.03;5091565;28;20044;-94
2022/12/02 00:53:03;;;;;;;30.60;15.95;;;;;;;2.87;100.00;98830.50;5091461;28;20097;-94
2022/12/02 00:55:29;;;;;;;30.45;17.30;;;;;;;2.90;100.00;98805.13;5091139;28;20040;-94
2022/12/02 00:57:55;;;;;;;34.42;16.75;;;;;;;2.98;100.00;98812.16;5091652;28;20072;-93
2022/12/02 01:00:21;;;;;;;36.53;17.65;;;;;;;3.21;100.00;98846.41;5087964;28;20047;-94
2022/12/02 01:02:46;;;;;;;34.05;18.15;;;;;;;3.04;100.00;98801.66;5091310;28;20064;-94
2022/12/02 01:05:14;;;;;;;39.00;18.13;;;;;;;3.02;100.00;98800.78;5091107;28;20046;-95
2022/12/02 01:07:40;;;;;;;36.08;17.80;;;;;;;3.08;100.00;98813.09;5090971;28;20020;-95
2022/12/02 01:10:06;;;;;;;35.47;18.13;;;;;;;3.17;100.00;98823.63;5091066;28;20044;-94
2022/12/02 01:12:33;;;;;;;37.47;18.85;;;;;;;3.09;100.00;98828.81;5090732;28;20127;-94
2022/12/02 01:14:59;;;;;;;34.25;17.40;;;;;;;3.07;100.00;98827.94;5090397;28;20516;-94
2022/12/02 01:17:25;;;;;;;39.13;18.95;;;;;;;3.08;100.00;98840.22;5090655;28;20052;-94
2022/12/02 01:19:50;;;;;;;35.47;17.85;;;;;;;3.00;100.00;98831.44;5090805;28;20039;-96
2022/12/02 01:22:18;;;;;;;33.55;17.98;;;;;;;3.02;100.00;98839.31;5090851;28;20040;-95
2022/12/02 01:24:44;;;;;;;35.15;17.63;;;;;;;2.71;100.00;98794.53;5090848;28;20098;-94
2022/12/02 01:27:10;;;;;;;35.00;17.85;;;;;;;2.75;100.00;98798.91;5090948;28;20759;-93
2022/12/02 01:29:35;;;;;;;32.72;15.43;;;;;;;2.97;100.00;98823.53;5090588;28;20071;-94
2022/12/02 01:32:01;;;;;;;29.67;15.55;;;;;;;3.20;100.00;98836.75;5089634;28;20520;-94
2022/12/02 01:34:27;;;;;;;28.65;15.23;;;;;;;3.01;100.00;98814.78;5090540;28;20058;-95
2022/12/02 01:36:53;;;;;;;35.13;17.05;;;;;;;2.93;100.00;98803.38;5090584;28;20355;-93
2022/12/02 01:39:20;;;;;;;30.60;16.23;;;;;;;3.03;100.00;98813.03;5089885;28;20040;-93
2022/12/02 01:41:46;;;;;;;32.15;14.95;;;;;;;3.22;100.00;98844.66;5090531;28;20047;-93
2022/12/02 01:44:13;;;;;;;36.83;15.00;;;;;;;3.36;100.00;98823.66;5090103;28;20036;-93
2022/12/02 01:46:39;;;;;;;25.38;13.52;;;;;;;3.50;99.98;98835.09;5089449;28;20486;-95
2022/12/02 01:49:05;;;;;;;29.38;14.93;;;;;;;3.35;99.95;98817.53;5089502;28;20068;-93
2022/12/02 01:51:31;;;;;;;27.50;13.70;;;;;;;3.40;100.00;98849.94;5090119;28;20036;-93
2022/12/02 01:53:57;;;;;;;29.58;15.07;;;;;;;3.30;100.00;98832.41;5090716;28;20097;-95
2022/12/02 01:56:26;;;;;;;29.73;15.07;;;;;;;3.32;100.00;98830.69;5090535;28;20123;-94
2022/12/02 01:58:52;;;;;;;32.38;15.13;;;;;;;3.46;99.86;98842.09;5080190;28;20090;-94
2022/12/02 02:01:23;;;;;;;31.05;15.65;;;;;;;3.07;100.00;98809.56;5076576;28;20043;-95
2022/12/02 02:03:49;;;;;;;31.10;15.40;;;;;;;3.23;100.00;98828.00;5076871;28;20041;-94
2022/12/02 02:06:15;;;;;;;29.50;15.77;;;;;;;3.14;100.00;98814.84;5077380;28;20386;-94
2022/12/02 02:08:41;;;;;;;30.55;15.70;;;;;;;3.28;100.00;98828.91;5076859;28;20040;-94
2022/12/02 02:11:07;;;;;;;27.05;15.10;;;;;;;3.23;100.00;98828.00;5076965;28;20044;-94
2022/12/02 02:13:34;;;;;;;31.35;15.75;;;;;;;3.24;100.00;98832.41;5076433;28;20048;-95
2022/12/02 02:16:00;;;;;;;32.65;14.52;;;;;;;3.16;100.00;98832.34;5076419;28;20072;-95
2022/12/02 02:18:26;;;;;;;30.23;15.93;;;;;;;3.33;100.00;98845.56;5076555;28;20072;-95
2022/12/02 02:20:54;;;;;;;30.95;16.55;;;;;;;3.38;100.00;98850.81;5076771;28;20127;-94
2022/12/02 02:23:23;;;;;;;34.70;16.67;;;;;;;3.31;100.00;98838.53;5076290;28;20036;-95
2022/12/02 02:25:53;;;;;;;29.85;15.48;;;;;;;3.32;100.00;98828.03;5076409;28;20037;-94
2022/12/02 02:28:22;;;;;;;32.67;16.23;;;;;;;3.39;100.00;98837.69;5076056;28;20087;-93
2022/12/02 02:30:48;;;;;;;30.40;15.20;;;;;;;3.23;100.00;98820.09;5074889;28;20517;-95
2022/12/02 02:33:14;;;;;;;32.75;16.00;;;;;;;3.27;100.00;98829.75;5076447;28;20040;-94
2022/12/02 02:35:42;;;;;;;39.08;18.00;;;;;;;3.31;100.00;98846.44;5076431;28;20045;-95
2022/12/02 02:38:11;;;;;;;35.13;16.50;;;;;;;3.17;100.00;98823.63;5076091;28;20127;-95
2022/12/02 02:40:40;;;;;;;34.05;17.25;;;;;;;3.23;100.00;98825.38;5076478;28;20045;-94
2022/12/02 02:43:06;;;;;;;34.58;16.70;;;;;;;3.37;100.00;98836.81;5076843;28;20413;-94
2022/12/02 02:45:36;;;;;;;34.20;16.98;;;;;;;3.40;100.00;98836.81;5075840;28;20037;-94
2022/12/02 02:48:03;;;;;;;36.00;16.25;;;;;;;3.34;100.00;98818.41;5075825;28;20564;-96
2022/12/02 02:50:30;;;;;;;30.02;16.48;;;;;;;3.57;100.00;98850.00;5075753;28;20086;-94
2022/12/02 02:52:56;;;;;;;30.95;15.88;;;;;;;3.55;100.00;98841.22;5075368;28;20048;-93
2022/12/02 02:55:25;;;;;;;29.95;15.38;;;;;;;3.60;100.00;98857.00;5075593;28;20040;-94
2022/12/02 02:57:52;;;;;;;34.72;15.77;;;;;;;3.38;100.00;98824.53;5075641;28;20032;-93
2022/12/02 03:00:21;;;;;;;32.45;15.80;;;;;;;3.37;100.00;98818.41;5075446;28;20136;-94
2022/12/02 03:02:52;;;;;;;30.20;16.20;;;;;;;3.50;100.00;98840.34;5075808;28;20094;-95
2022/12/02 03:05:20;;;;;;;34.67;16.70;;;;;;;3.47;100.00;98841.22;5075719;28;20485;-94
2022/12/02 03:07:46;;;;;;;32.55;15.90;;;;;;;3.36;100.00;98818.41;5075660;28;20112;-94
2022/12/02 03:10:12;;;;;;;30.70;16.30;;;;;;;3.51;100.00;98836.84;5073951;28;20064;-95
2022/12/02 03:12:39;;;;;;;35.17;16.80;;;;;;;3.34;100.00;98812.25;5074194;28;20044;-93
2022/12/02 03:15:08;;;;;;;31.63;16.40;;;;;;;3.42;100.00;98835.06;5074293;28;20048;-94
2022/12/02 03:17:34;;;;;;;33.47;17.05;;;;;;;3.32;100.00;98821.88;5075185;28;20028;-95
2022/12/02 03:20:00;;;;;;;34.70;16.50;;;;;;;3.07;100.00;98816.56;5076270;28;20041;-94
2022/12/02 03:22:26;;;;;;;31.33;16.00;;;;;;;2.87;100.00;98805.97;5075291;28;20148;-94
2022/12/02 03:24:52;;;;;;;31.35;15.70;;;;;;;2.84;100.00;98835.75;5075483;28;20428;-95
2022/12/02 03:27:18;;;;;;;33.15;15.77;;;;;;;2.75;100.00;98830.41;5075092;28;20040;-94
2022/12/02 03:29:44;;;;;;;26.85;14.40;;;;;;;2.44;100.00;98809.25;5075267;28;20126;-96
2022/12/02 03:32:12;;;;;;;31.38;15.68;;;;;;;2.29;100.00;98816.16;5074741;28;20448;-95
2022/12/02 03:34:40;;;;;;;37.20;16.05;;;;;;;2.31;100.00;98840.66;5074777;28;20041;-94
2022/12/02 03:37:07;;;;;;;32.67;15.97;;;;;;;2.04;100.00;98821.25;5074963;28;20463;-93
2022/12/02 03:39:33;;;;;;;30.42;15.57;;;;;;;1.97;100.00;98822.91;5074877;28;20067;-94
2022/12/02 03:41:59;;;;;;;30.65;15.77;;;;;;;2.02;100.00;98834.34;5075064;28;20139;-94
2022/12/02 03:44:25;;;;;;;33.20;15.90;;;;;;;2.16;100.00;98860.66;5076814;28;20040;-94
2022/12/02 03:46:51;;;;;;;35.35;16.45;;;;;;;2.20;100.00;98862.44;5074268;28;20051;-93
2022/12/02 03:49:18;;;;;;;29.13;15.68;;;;;;;2.13;100.00;98857.16;5074167;28;20054;-93
2022/12/02 03:51:45;;;;;;;31.55;15.10;;;;;;;2.07;100.00;98849.22;5073563;28;20045;-94
2022/12/02 03:54:12;;;;;;;37.00;17.38;;;;;;;2.08;100.00;98843.09;5074793;28;20041;-94
2022/12/02 03:56:40;;;;;;;36.03;18.77;;;;;;;2.14;100.00;98840.53;5074359;28;20123;-93
2022/12/02 03:59:06;;;;;;;36.08;17.75;;;;;;;2.14;100.00;98817.78;5073923;28;20040;-94
2022/12/02 04:01:32;;;;;;;34.28;16.73;;;;;;;2.18;100.00;98819.56;5074209;28;20051;-94
2022/12/02 04:03:58;;;;;;;33.80;17.52;;;;;;;2.42;100.00;98841.63;5074169;28;20055;-94
2022/12/02 04:06:25;;;;;;;35.88;17.83;;;;;;;2.45;100.00;98828.50;5073771;28;20036;-94
2022/12/02 04:08:51;;;;;;;33.10;16.02;;;;;;;2.50;100.00;98831.19;5074106;28;20441;-93
2022/12/02 04:11:17;;;;;;;32.65;17.17;;;;;;;2.34;100.00;98798.69;5074461;28;20036;-94
2022/12/02 04:13:43;;;;;;;36.42;16.63;;;;;;;2.29;100.00;98803.91;5073961;28;20364;-95
2022/12/02 04:16:09;;;;;;;31.98;16.40;;;;;;;2.44;100.00;98826.75;5073474;28;20044;-94
2022/12/02 04:18:35;;;;;;;34.28;17.67;;;;;;;2.43;100.00;98831.13;5074296;28;20118;-94
2022/12/02 04:21:01;;;;;;;37.38;19.75;;;;;;;2.41;100.00;98826.75;5072972;28;20498;-95
2022/12/02 04:23:28;;;;;;;37.35;18.85;;;;;;;2.43;100.00;98822.38;5074648;28;20051;-94
2022/12/02 04:25:54;;;;;;;35.08;18.13;;;;;;;2.52;100.00;98811.94;5074135;28;20040;-94
2022/12/02 04:28:20;;;;;;;35.53;17.20;;;;;;;2.65;100.00;98833.88;5073100;28;20520;-95
2022/12/02 04:30:46;;;;;;;35.35;17.30;;;;;;;2.52;100.00;98809.31;5073908;28;20139;-94
2022/12/02 04:33:12;;;;;;;37.20;17.98;;;;;;;2.66;100.00;98841.75;5073907;28;20064;-95
2022/12/02 04:35:37;;;;;;;36.88;18.40;;;;;;;2.52;100.00;98822.44;5067912;28;20486;-94
2022/12/02 04:38:03;;;;;;;35.53;18.05;;;;;;;2.70;100.00;98844.41;5074021;28;20128;-94
2022/12/02 04:40:31;;;;;;;37.63;17.75;;;;;;;2.59;100.00;98823.34;5073317;28;20513;-94
2022/12/02 04:42:56;;;;;;;32.67;17.88;;;;;;;2.61;100.00;98822.47;5073720;28;20052;-96
2022/12/02 04:45:22;;;;;;;38.65;18.13;;;;;;;2.65;100.00;98834.75;5068965;28;20383;-94
2022/12/02 04:47:48;;;;;;;40.22;18.25;;;;;;;2.74;100.00;98841.81;5073130;28;20508;-93
2022/12/02 04:50:14;;;;;;;36.05;17.63;;;;;;;2.80;100.00;98840.97;5074169;28;20079;-96
2022/12/02 04:52:40;;;;;;;50.53;19.98;;;;;;;2.68;100.00;98802.38;5073552;28;20033;-92
2022/12/02 04:55:07;;;;;;;36.92;18.00;;;;;;;2.62;100.00;98818.09;5073853;28;20405;-94
2022/12/02 04:57:34;;;;;;;33.50;17.52;;;;;;;2.78;100.00;98840.97;5073945;28;20393;-94
2022/12/02 05:00:01;;;;;;;35.13;17.38;;;;;;;2.59;100.00;98803.22;5073967;28;20040;-94
2022/12/02 05:02:27;;;;;;;40.40;17.45;;;;;;;2.64;100.00;98803.22;5073410;28;20044;-92
2022/12/02 05:04:52;;;;;;;41.20;17.25;;;;;;;2.86;100.00;98817.34;5070800;28;20050;-93
2022/12/02 05:07:18;;;;;;;34.72;15.40;;;;;;;2.87;100.00;98804.22;5073688;28;20086;-94
2022/12/02 05:09:44;;;;;;;34.35;17.05;;;;;;;2.85;100.00;98808.59;5073367;28;20127;-94
2022/12/02 05:12:10;;;;;;;40.40;15.93;;;;;;;2.98;100.00;98814.78;5073263;28;20044;-93
2022/12/02 05:14:37;;;;;;;34.20;16.65;;;;;;;2.90;100.00;98805.13;5071992;28;20051;-94
2022/12/02 05:17:03;;;;;;;42.50;18.63;;;;;;;2.97;100.00;98825.28;5072855;28;20041;-94
2022/12/02 05:19:29;;;;;;;41.60;17.98;;;;;;;2.77;100.00;98805.03;5073440;28;20040;-92
2022/12/02 05:21:55;;;;;;;32.97;15.57;;;;;;;2.94;100.00;98818.25;5073306;28;20044;-94
2022/12/02 05:24:21;;;;;;;34.40;17.55;;;;;;;2.58;100.00;98784.81;5074560;28;20041;-92
2022/12/02 05:26:47;;;;;;;39.58;17.23;;;;;;;2.77;100.00;98818.19;5075845;28;20048;-94
2022/12/02 05:29:13;;;;;;;37.30;17.02;;;;;;;2.64;100.00;98784.84;5073584;28;20097;-93
2022/12/02 05:31:41;;;;;;;34.72;16.48;;;;;;;2.95;100.00;98832.25;5072897;28;20032;-93
2022/12/02 05:34:06;;;;;;;36.30;16.73;;;;;;;2.94;100.00;98826.13;5074857;28;20044;-94
2022/12/02 05:36:32;;;;;;;36.97;16.98;;;;;;;2.86;100.00;98801.59;5077094;28;20441;-94
2022/12/02 05:38:58;;;;;;;32.95;15.25;;;;;;;3.14;100.00;98822.72;5076872;28;20041;-93
2022/12/02 05:41:24;;;;;;;31.73;14.82;;;;;;;3.24;100.00;98828.00;5076042;28;20043;-93
2022/12/02 05:43:50;;;;;;;33.10;15.23;;;;;;;3.27;100.00;98829.75;5077022;28;20063;-95
2022/12/02 05:46:18;;;;;;;30.95;15.65;;;;;;;3.19;100.00;98824.50;5075997;28;20051;-93
2022/12/02 05:48:48;;;;;;;35.28;14.68;;;;;;;3.04;100.00;98791.16;5077586;28;20063;-94
2022/12/02 05:51:16;;;;;;;31.65;14.25;;;;;;;3.17;100.00;98817.50;5076108;28;20057;-95
2022/12/02 05:53:43;;;;;;;31.38;15.35;;;;;;;3.14;100.00;98802.56;5076768;28;20052;-93
2022/12/02 05:56:12;;;;;;;34.60;14.30;;;;;;;3.37;100.00;98823.66;5076710;28;20045;-93
2022/12/02 05:58:38;;;;;;;33.08;15.55;;;;;;;3.28;100.00;98794.75;5070467;28;20140;-95
2022/12/02 06:01:19;;;;;;;32.90;16.02;;;;;;;3.28;100.00;98819.25;5077609;28;20413;-94
2022/12/02 06:03:48;;;;;;;33.40;15.35;;;;;;;3.45;100.00;98834.22;5076500;28;20060;-95
2022/12/02 06:06:15;;;;;;;32.85;13.73;;;;;;;3.45;100.00;98839.47;5069422;28;20044;-93
2022/12/02 06:08:41;;;;;;;29.58;14.80;;;;;;;3.38;100.00;98832.44;5077486;28;20044;-95
2022/12/02 06:11:22;;;;;;;28.88;14.88;;;;;;;3.49;100.00;98838.56;5076372;28;20040;-93
2022/12/02 06:13:49;;;;;;;30.88;15.20;;;;;;;3.34;99.41;98815.78;5076614;28;20604;-92
2022/12/02 06:16:22;;;;;;;49.65;14.80;;;;;;;3.39;99.36;98826.31;5075532;28;20048;-95
2022/12/02 06:18:50;;;;;;;34.45;15.25;;;;;;;3.22;99.43;98799.97;5077034;28;20040;-93
2022/12/02 06:21:19;;;;;;;29.05;13.70;;;;;;;3.43;100.00;98839.47;5076297;28;20040;-94
2022/12/02 06:23:47;;;;;;;35.28;15.25;;;;;;;3.43;99.90;98836.84;5076787;28;20086;-94
2022/12/02 06:26:14;;;;;;;33.88;15.23;;;;;;;3.30;100.00;98806.13;5076936;28;20033;-94
2022/12/02 06:28:43;;;;;;;36.00;15.57;;;;;;;3.35;100.00;98790.38;5076808;28;20094;-94
2022/12/02 06:31:13;;;;;;;32.63;14.82;;;;;;;3.40;99.79;98794.75;5076704;28;20071;-94
2022/12/02 06:33:40;;;;;;;36.22;15.57;;;;;;;3.66;99.15;98834.22;5076217;28;20045;-94
2022/12/02 06:36:12;;;;;;;34.92;16.05;;;;;;;3.67;98.47;98845.66;5079317;28;20082;-94
2022/12/02 06:38:46;;;;;;;32.55;15.73;;;;;;;3.43;98.49;98818.44;5076838;28;20040;-95
2022/12/02 06:41:15;;;;;;;32.22;16.02;;;;;;;3.34;99.43;98822.78;5076810;28;20056;-94
2022/12/02 06:45:03;;;;;;;34.83;16.40;;;;;;;3.29;99.23;98805.22;5073349;28;20048;-94
2022/12/02 06:46:27;;;;;;;36.92;15.77;;;;;;;3.32;99.83;98803.50;5061120;28;21749;-95
2022/12/02 06:48:53;;;;;;;42.15;15.43;;;;;;;3.63;98.27;98841.25;5075371;28;20075;-95
2022/12/02 06:51:21;;;;;;;35.40;15.45;;;;;;;3.70;98.39;98850.91;5074963;28;20032;-94
2022/12/02 06:53:47;;;;;;;34.10;14.85;;;;;;;3.50;98.19;98801.78;5071813;28;20687;-92
2022/12/02 06:56:21;;;;;;;31.95;15.23;;;;;;;3.69;97.82;98830.75;5074653;28;20127;-94
2022/12/02 06:58:54;;;;;;;34.22;15.30;;;;;;;3.75;97.74;98838.63;5074890;28;20044;-93
2022/12/02 07:01:23;;;;;;;40.42;17.40;;;;;;;3.72;97.29;98830.75;5073086;28;20044;-95
2022/12/02 07:03:59;;;;;;;;;;;;;;;3.80;97.87;98847.41;5074940;28;20044;-92
2022/12/02 07:06:28;;;;;;;32.13;15.20;;;;;;;3.86;97.32;98850.06;5067646;28;19927;-94
2022/12/02 07:08:56;;;;;;;36.60;15.93;;;;;;;3.87;98.49;98849.16;5074557;28;20492;-94
2022/12/02 07:11:48;;;;;;;37.30;15.93;;;;;;;3.84;98.68;98830.78;5075118;28;20036;-95
2022/12/02 07:14:19;;;;;;;39.70;17.33;;;;;;;3.96;97.99;98818.50;5061590;28;20056;-94
2022/12/02 07:16:45;;;;;;;39.20;17.73;;;;;;;4.20;97.57;98852.69;5074380;28;20308;-95
2022/12/02 07:19:15;;;;;;;37.85;17.52;;;;;;;4.08;96.77;98826.41;5090214;28;20132;-95
2022/12/02 07:21:43;;;;;;;33.95;16.25;;;;;;;4.22;96.58;98869.38;5075613;28;20493;-94
2022/12/02 07:24:12;;;;;;;36.83;16.95;;;;;;;4.17;95.62;98863.22;5074468;28;20135;-95
2022/12/02 07:26:38;;;;;;;32.30;15.52;;;;;;;3.96;96.19;98835.16;5075331;28;20496;-95
2022/12/02 07:29:04;;;;;;;36.35;16.58;;;;;;;4.03;96.47;98838.66;5075467;28;20045;-96
2022/12/02 07:31:31;;;;;;;38.10;16.40;;;;;;;4.23;96.89;98849.19;5076516;28;20045;-96
2022/12/02 07:33:57;;;;;;;36.38;16.50;;;;;;;4.29;95.84;98854.44;5076233;28;20052;-95
2022/12/02 07:36:23;;;;;;;41.10;18.77;;;;;;;4.27;95.73;98848.28;5077360;28;20040;-94
2022/12/02 07:38:50;;;;;;;39.47;19.08;;;;;;;4.50;96.27;98880.75;5072578;28;20071;-96
2022/12/02 07:41:18;;;;;;;45.15;20.55;;;;;;;4.43;96.27;98859.72;5075497;28;20040;-94
2022/12/02 07:43:44;;;;;;;44.00;19.75;;;;;;;4.31;96.21;98829.00;5075149;28;21417;-95
2022/12/02 07:46:10;;;;;;;46.33;23.23;;;;;;;4.42;96.31;98847.41;5074686;28;20075;-96
2022/12/02 07:48:36;;;;;;;69.90;28.67;;;;;;;4.45;96.24;98847.44;5074492;28;20055;-95
2022/12/02 07:51:02;;;;;;;56.50;25.80;;;;;;;4.42;96.04;98836.88;5075427;28;20050;-95
2022/12/02 07:53:28;;;;;;;47.92;21.60;;;;;;;4.49;96.15;98838.66;5075702;28;20044;-95
2022/12/02 07:55:57;;;;;;;50.15;19.60;;;;;;;4.63;95.98;98857.91;5075045;28;20048;-93
2022/12/02 07:58:23;;;;;;;35.67;16.65;;;;;;;4.83;93.20;98854.38;5074771;28;20102;-95
2022/12/02 08:00:49;;;;;;;40.95;16.60;;;;;;;4.75;93.15;98841.22;5075627;28;20040;-94
2022/12/02 08:03:14;;;;;;;33.70;15.45;;;;;;;4.64;94.37;98862.31;5075857;28;20045;-93
2022/12/02 08:05:40;;;;;;;39.00;17.85;;;;;;;4.41;94.69;98862.34;5076205;28;20036;-93
2022/12/02 08:08:06;;;;;;;35.38;16.45;;;;;;;4.29;95.17;98852.72;5075780;28;20037;-94
2022/12/02 08:10:32;;;;;;;36.72;16.00;;;;;;;4.35;95.14;98864.09;5075466;28;20041;-95
2022/12/02 08:12:59;;;;;;;35.03;15.85;;;;;;;4.43;94.94;98875.50;5074259;28;20045;-94
2022/12/02 08:15:25;;;;;;;36.08;16.98;;;;;;;4.44;94.55;98866.72;5073796;28;20488;-94
2022/12/02 08:17:51;;;;;;;37.85;17.10;;;;;;;4.41;94.48;98858.84;5075059;28;20032;-94
2022/12/02 08:20:17;;;;;;;37.72;16.80;;;;;;;4.57;92.34;98884.25;5075587;28;20401;-94
2022/12/02 08:22:43;;;;;;;36.55;17.42;;;;;;;4.51;92.84;98879.00;5074966;28;20037;-93
2022/12/02 08:25:09;;;;;;;41.60;17.27;;;;;;;4.59;93.83;98893.03;5076090;28;20453;-95
2022/12/02 08:27:39;;;;;;;35.85;17.65;;;;;;;4.74;92.94;98894.78;5074538;28;20033;-93
2022/12/02 08:30:08;;;;;;;34.65;16.25;;;;;;;4.86;91.75;98891.25;5074697;28;20045;-94
2022/12/02 08:32:34;;;;;;;38.20;17.20;;;;;;;4.95;91.70;98885.97;5074130;28;20037;-93
2022/12/02 08:35:00;;;;;;;47.05;19.70;;;;;;;5.04;89.57;98864.84;5074558;28;20062;-94
2022/12/02 08:37:26;;;;;;;44.53;19.83;;;;;;;5.34;90.02;98891.97;5074467;28;20047;-94
2022/12/02 08:39:52;;;;;;;46.75;23.05;;;;;;;5.58;87.75;98882.22;5074235;28;20040;-93
2022/12/02 08:42:18;;;;;;;39.83;20.65;;;;;;;5.78;87.79;98890.88;5074680;28;20041;-95
2022/12/02 08:44:44;;;;;;;40.42;20.52;;;;;;;5.79;87.76;98884.72;5074015;28;20041;-94
2022/12/02 08:47:11;;;;;;;44.05;22.05;;;;;;;5.73;87.94;98882.13;5073720;28;20048;-94
2022/12/02 08:49:37;;;;;;;46.45;24.38;;;;;;;5.61;88.74;98861.94;5073530;28;20041;-92
2022/12/02 08:52:03;;;;;;;42.08;21.65;;;;;;;5.71;88.99;98875.97;5072795;28;20540;-94
2022/12/02 08:54:29;;;;;;;36.15;19.52;;;;;;;5.67;88.17;98874.22;5072593;28;20068;-94
2022/12/02 08:56:55;;;;;;;40.08;19.33;;;;;;;5.68;86.84;98865.41;5073487;28;20064;-94
2022/12/02 08:59:21;;;;;;;46.88;22.73;;;;;;;5.93;87.54;98896.06;5073752;28;20139;-94
2022/12/02 09:01:47;;;;;;;44.53;21.63;;;;;;;5.91;88.23;98882.00;5072857;28;20464;-93
2022/12/02 09:04:14;;;;;;;41.13;20.23;;;;;;;6.19;88.12;98915.28;5073575;28;20068;-95
2022/12/02 09:06:40;;;;;;;39.95;17.30;;;;;;;6.04;84.50;98888.09;5073180;28;20041;-94
2022/12/02 09:09:06;;;;;;;36.33;18.17;;;;;;;6.15;83.98;98902.09;5073947;28;20040;-94
2022/12/02 09:11:33;;;;;;;43.72;19.83;;;;;;;6.19;84.71;98886.25;5077337;28;20127;-93
2022/12/02 09:13:58;;;;;;;33.55;17.58;;;;;;;6.05;84.10;98891.59;5077434;28;20033;-95
2022/12/02 09:16:24;;;;;;;34.05;16.25;;;;;;;6.27;84.57;98908.19;5076152;28;20132;-95
2022/12/02 09:18:50;;;;;;;35.17;16.95;;;;;;;6.43;84.61;98911.59;5076754;28;20060;-94
2022/12/02 09:21:18;;;;;;;35.38;15.40;;;;;;;6.50;84.85;98882.44;5074524;28;20041;-93
2022/12/02 09:23:44;;;;;;;36.13;17.23;;;;;;;6.75;84.25;98896.31;5076620;28;20517;-93
2022/12/02 09:26:10;;;;;;;45.50;22.35;;;;;;;6.78;83.09;98877.78;5076980;28;20041;-94
2022/12/02 09:28:35;;;;;;;45.08;20.88;;;;;;;6.90;83.56;98884.72;5075661;28;20503;-94
2022/12/02 09:31:01;;;;;;;36.35;17.98;;;;;;;7.03;81.86;98911.03;5075472;28;20040;-94
2022/12/02 09:33:27;;;;;;;37.30;18.25;;;;;;;6.95;81.21;98893.47;5076555;28;20070;-94
2022/12/02 09:35:53;;;;;;;30.95;15.40;;;;;;;6.89;80.42;98890.00;5075926;28;20053;-95
2022/12/02 09:38:20;;;;;;;32.80;16.90;;;;;;;7.02;80.28;98891.63;5076579;28;20044;-93
2022/12/02 09:40:46;;;;;;;30.13;15.82;;;;;;;7.07;80.63;98883.63;5075820;28;20032;-93
2022/12/02 09:43:13;;;;;;;30.30;15.32;;;;;;;7.24;80.67;98892.25;5075938;28;20555;-94
2022/12/02 09:45:40;;;;;;;29.92;14.93;;;;;;;7.21;79.93;98879.09;5075207;28;20114;-94
2022/12/02 09:48:06;;;;;;;32.55;15.68;;;;;;;7.24;79.61;98870.22;5075324;28;20053;-94
2022/12/02 09:50:33;;;;;;;27.77;14.48;;;;;;;7.31;78.73;98888.66;5075618;28;20498;-94
2022/12/02 09:53:04;;;;;;;32.25;14.68;;;;;;;7.00;80.85;98882.84;5076023;28;20402;-94
2022/12/02 09:55:31;;;;;;;30.98;15.90;;;;;;;7.20;80.92;98883.50;5075582;28;20036;-94
2022/12/02 09:58:09;;;;;;;32.70;16.83;;;;;;;7.44;80.13;98888.50;5075736;28;20458;-95
2022/12/02 10:00:35;;;;;;;32.72;16.08;;;;;;;7.33;79.69;98886.88;5074255;28;20446;-94
2022/12/02 10:03:01;;;;;;;33.03;16.50;;;;;;;7.37;80.56;98893.00;5075155;28;20075;-92
2022/12/02 10:05:28;;;;;;;38.67;16.83;;;;;;;7.14;80.36;98874.78;5076788;28;20093;-95
2022/12/02 10:07:56;;;;;;;37.00;18.27;;;;;;;7.18;80.74;98866.78;5074944;28;20139;-93
2022/12/02 10:10:26;;;;;;;39.67;18.45;;;;;;;7.23;80.83;98847.34;5075014;28;20079;-92
2022/12/02 10:12:53;;;;;;;37.45;18.25;;;;;;;7.55;79.11;98849.56;5073114;28;20044;-94
2022/12/02 10:15:23;;;;;;;42.45;19.70;;;;;;;7.59;78.63;98851.28;5074721;28;20398;-93
2022/12/02 10:17:49;;;;;;;34.78;18.02;;;;;;;7.67;79.90;98859.97;5074543;28;20044;-94
2022/12/02 10:20:18;;;;;;;41.60;19.58;;;;;;;7.44;77.96;98872.63;5075444;28;20066;-95
2022/12/02 10:23:07;;;;;;;37.05;16.45;;;;;;;7.69;77.49;98894.38;5075249;28;20041;-93
2022/12/02 10:25:34;;;;;;;36.13;18.00;;;;;;;7.55;79.17;98882.19;5075823;28;20036;-94
2022/12/02 10:28:02;;;;;;;46.20;20.88;;;;;;;7.59;79.84;98865.38;5076534;28;20132;-94
2022/12/02 10:30:28;;;;;;;37.97;17.48;;;;;;;7.46;78.64;98836.44;5074471;28;20044;-93
2022/12/02 10:32:59;;;;;;;34.55;16.40;;;;;;;7.66;78.88;98871.47;5075508;28;20047;-93
2022/12/02 10:35:25;;;;;;;38.88;17.27;;;;;;;7.57;79.45;98848.66;5075073;28;20106;-93
2022/12/02 10:37:51;;;;;;;31.38;14.07;;;;;;;7.70;76.00;98867.88;5074033;28;20049;-93
2022/12/02 10:40:20;;;;;;;30.33;15.18;;;;;;;7.61;76.47;98847.72;5074821;28;20064;-93
2022/12/02 10:42:46;;;;;;;35.67;17.20;;;;;;;7.86;78.03;98875.59;5072113;28;20104;-93
2022/12/02 10:45:20;;;;;;;28.13;15.63;;;;;;;7.79;76.68;98869.53;5075451;28;20044;-94
2022/12/02 10:47:47;;;;;;;31.35;15.57;;;;;;;7.79;76.85;98851.84;5072731;28;20037;-93
2022/12/02 10:50:19;;;;;;;36.88;17.17;;;;;;;7.86;76.49;98839.41;5074667;28;20516;-93
2022/12/02 10:52:47;;;;;;;35.83;16.83;;;;;;;7.92;75.85;98849.03;5074893;28;20515;-94
2022/12/02 10:55:15;;;;;;;32.57;16.13;;;;;;;7.98;74.62;98833.03;5075046;28;20044;-94
2022/12/02 10:57:42;;;;;;;29.13;14.32;;;;;;;7.97;74.62;98824.22;5074897;28;20040;-93
2022/12/02 11:00:13;;;;;;;29.33;15.77;;;;;;;8.01;76.10;98865.66;5073967;28;20070;-95
2022/12/02 11:02:45;;;;;;;29.85;15.93;;;;;;;7.64;77.33;98825.63;5073796;28;20068;-94
2022/12/02 11:05:14;;;;;;;32.80;16.75;;;;;;;7.74;77.79;98845.78;5071122;28;20044;-94
2022/12/02 11:07:40;;;;;;;28.58;15.57;;;;;;;7.65;79.42;98834.41;5073884;28;20041;-94
2022/12/02 11:10:18;;;;;;;31.23;16.00;;;;;;;7.81;78.21;98851.84;5073820;28;20487;-93
2022/12/02 11:13:05;;;;;;;27.42;15.13;;;;;;;7.82;75.68;98841.22;5072854;28;20042;-95
2022/12/02 11:15:41;;;;;;;35.67;14.40;;;;;;;7.59;76.75;98820.38;5086786;28;20060;-92
2022/12/02 11:18:10;;;;;;;29.02;15.65;;;;;;;7.48;77.73;98822.31;5074563;28;20040;-95
2022/12/02 11:20:40;;;;;;;28.73;15.40;;;;;;;7.40;79.85;98845.34;5075693;28;20502;-95
2022/12/02 11:23:17;;;;;;;28.13;15.70;;;;;;;7.39;78.46;98828.59;5074650;28;20063;-93
2022/12/02 11:25:51;;;;;;;34.13;15.75;;;;;;;7.36;79.97;98849.78;5073933;28;20048;-94